Time;durP1;ratioP1;P1;durP2;ratioP2;P2;SDS_P1;SDS_P2;PMS_P1;PMS_P2;Temp;Humidity;BMP_temperature;BMP_pressure;BME280_temperature;BME280_humidity;BME280_pressure;Samples;Min_cycle;Max_cycle;Signal;HPM_P1;HPM_P2
2023/09/08 00:02:06;;;;;;;22.33;5.20;;;24.50;99.90;;;;;;4991145;28;20030;-87
2023/09/08 00:04:35;;;;;;;13.70;5.22;;;24.40;99.90;;;;;;4991131;28;20584;-86
2023/09/08 00:07:01;;;;;;;9.73;4.85;;;24.40;99.90;;;;;;4991110;28;20026;-86
2023/09/08 00:09:27;;;;;;;10.32;4.95;;;24.50;99.90;;;;;;4990911;28;20039;-88
2023/09/08 00:11:54;;;;;;;11.25;4.88;;;24.40;99.90;;;;;;4990853;28;20022;-87
2023/09/08 00:14:19;;;;;;;8.33;5.07;;;24.40;99.90;;;;;;4990865;28;20042;-89
2023/09/08 00:16:45;;;;;;;12.88;5.45;;;24.40;99.90;;;;;;4990927;28;20795;-86
2023/09/08 00:19:11;;;;;;;14.13;5.60;;;24.40;99.90;;;;;;4990787;28;20058;-88
2023/09/08 00:21:37;;;;;;;11.30;5.32;;;24.30;99.90;;;;;;4988775;28;20022;-88
2023/09/08 00:24:03;;;;;;;14.60;4.88;;;24.30;99.90;;;;;;4990633;28;20584;-86
2023/09/08 00:26:30;;;;;;;16.77;6.18;;;24.30;99.90;;;;;;4990965;28;20120;-85
2023/09/08 00:28:55;;;;;;;12.52;5.55;;;24.20;99.90;;;;;;4989305;28;20026;-87
2023/09/08 00:31:21;;;;;;;17.65;5.80;;;24.10;99.90;;;;;;4977846;28;20081;-87
2023/09/08 00:33:47;;;;;;;22.02;5.47;;;24.10;99.90;;;;;;4970923;28;20046;-87
2023/09/08 00:36:13;;;;;;;10.05;5.13;;;24.10;99.90;;;;;;4971091;28;20073;-86
2023/09/08 00:38:39;;;;;;;13.77;5.10;;;24.10;99.90;;;;;;4970030;28;20031;-86
2023/09/08 00:41:05;;;;;;;10.63;4.97;;;24.10;99.90;;;;;;4969599;28;20022;-85
2023/09/08 00:43:31;;;;;;;11.43;4.93;;;24.10;99.90;;;;;;4974780;28;20030;-85
2023/09/08 00:45:58;;;;;;;12.35;5.13;;;24.00;99.90;;;;;;4991152;28;20073;-87
2023/09/08 00:48:25;;;;;;;10.23;5.03;;;24.10;99.90;;;;;;4990326;28;20026;-88
2023/09/08 00:50:51;;;;;;;11.73;5.05;;;24.00;99.90;;;;;;4990229;28;20092;-87
2023/09/08 00:53:17;;;;;;;15.48;5.55;;;24.00;99.90;;;;;;4990186;28;20034;-88
2023/09/08 00:55:43;;;;;;;10.70;5.22;;;24.00;99.90;;;;;;4990197;28;20478;-86
2023/09/08 00:58:10;;;;;;;9.68;5.20;;;23.90;99.90;;;;;;4986141;28;20031;-87
2023/09/08 01:00:36;;;;;;;14.30;5.30;;;23.90;99.90;;;;;;4970737;28;20399;-87
2023/09/08 01:03:02;;;;;;;12.60;5.00;;;23.90;99.90;;;;;;4970572;28;20479;-85
2023/09/08 01:05:28;;;;;;;19.77;5.32;;;23.80;99.90;;;;;;4979879;28;20019;-87
2023/09/08 01:07:55;;;;;;;9.50;5.10;;;23.80;99.90;;;;;;4970383;28;20041;-86
2023/09/08 01:10:21;;;;;;;15.48;5.28;;;23.90;99.90;;;;;;5005107;28;20035;-85
2023/09/08 01:12:47;;;;;;;10.10;5.20;;;23.80;99.90;;;;;;5004942;28;20467;-86
2023/09/08 01:15:12;;;;;;;8.73;4.65;;;23.80;99.90;;;;;;4989938;28;20027;-87
2023/09/08 01:17:39;;;;;;;8.32;4.60;;;23.80;99.90;;;;;;4989747;28;20036;-86
2023/09/08 01:20:16;;;;;;;7.85;4.70;;;23.80;99.90;;;;;;4977490;28;20079;-87
2023/09/08 01:23:09;;;;;;;14.23;5.40;;;23.80;99.90;;;;;;4970467;28;20103;-87
2023/09/08 01:25:54;;;;;;;13.23;5.07;;;23.80;99.90;;;;;;4970330;28;20062;-87
2023/09/08 01:28:21;;;;;;;11.82;5.15;;;23.80;99.90;;;;;;4970390;28;20045;-87
2023/09/08 01:30:48;;;;;;;10.90;5.15;;;23.80;99.90;;;;;;4970447;28;20029;-85
2023/09/08 01:33:14;;;;;;;12.45;5.20;;;23.80;99.90;;;;;;4969082;28;20035;-87
2023/09/08 01:35:40;;;;;;;9.48;5.25;;;23.90;99.90;;;;;;4988804;28;20023;-87
2023/09/08 01:38:05;;;;;;;13.00;5.38;;;23.80;99.90;;;;;;4989718;28;20097;-87
2023/09/08 01:40:31;;;;;;;10.45;5.57;;;23.80;99.90;;;;;;4990342;28;20061;-85
2023/09/08 01:42:57;;;;;;;11.88;5.30;;;23.80;99.90;;;;;;4989634;28;20486;-85
2023/09/08 01:45:22;;;;;;;15.52;5.55;;;23.80;99.90;;;;;;4989765;28;20318;-87
2023/09/08 01:47:48;;;;;;;15.75;6.15;;;23.80;99.90;;;;;;4989583;28;20385;-86
2023/09/08 01:50:15;;;;;;;20.00;5.97;;;23.80;99.90;;;;;;4988429;28;20038;-85
2023/09/08 01:52:40;;;;;;;10.52;5.30;;;23.80;99.90;;;;;;4989574;28;20070;-88
2023/09/08 01:55:07;;;;;;;15.45;5.50;;;23.70;99.90;;;;;;4989485;28;20390;-85
2023/09/08 01:57:33;;;;;;;12.32;5.10;;;23.70;99.90;;;;;;4990525;28;20018;-85
2023/09/08 01:59:58;;;;;;;14.98;5.95;;;23.70;99.90;;;;;;4989601;28;20038;-87
2023/09/08 02:02:24;;;;;;;11.15;5.57;;;23.70;99.90;;;;;;4989448;28;20553;-85
2023/09/08 02:04:49;;;;;;;12.48;5.40;;;23.80;99.90;;;;;;4977909;28;20042;-85
2023/09/08 02:07:15;;;;;;;15.15;6.10;;;23.80;99.90;;;;;;4970059;28;20027;-85
2023/09/08 02:09:42;;;;;;;12.93;5.85;;;23.80;99.90;;;;;;4969971;28;20022;-86
2023/09/08 02:12:07;;;;;;;14.57;5.38;;;23.80;99.90;;;;;;4969969;28;20023;-85
2023/09/08 02:14:33;;;;;;;15.05;5.72;;;23.70;99.90;;;;;;4970786;28;20039;-86
2023/09/08 02:16:59;;;;;;;10.38;5.30;;;23.70;99.90;;;;;;4969981;28;20526;-85
2023/09/08 02:19:24;;;;;;;9.68;5.38;;;23.70;99.90;;;;;;4969985;28;20234;-87
2023/09/08 02:21:50;;;;;;;11.23;5.90;;;23.70;99.90;;;;;;4969353;28;20062;-86
2023/09/08 02:24:15;;;;;;;8.90;5.30;;;23.70;99.90;;;;;;4969788;28;20018;-86
2023/09/08 02:26:41;;;;;;;13.02;5.03;;;23.70;99.90;;;;;;4969784;28;20110;-85
2023/09/08 02:29:07;;;;;;;12.82;5.00;;;23.70;99.90;;;;;;4969897;28;20042;-85
2023/09/08 02:31:33;;;;;;;11.77;5.10;;;23.80;99.90;;;;;;4970646;28;20027;-86
2023/09/08 02:33:59;;;;;;;12.73;5.43;;;23.70;99.90;;;;;;4973017;28;20751;-85
2023/09/08 02:36:27;;;;;;;11.05;5.25;;;23.70;99.90;;;;;;4987448;28;20034;-86
2023/09/08 02:38:54;;;;;;;9.27;4.80;;;23.70;99.90;;;;;;4989031;28;20105;-85
2023/09/08 02:41:20;;;;;;;15.73;5.43;;;23.70;99.90;;;;;;4989203;28;20537;-86
2023/09/08 02:43:46;;;;;;;7.40;4.82;;;23.70;99.90;;;;;;4989419;28;20031;-85
2023/09/08 02:46:11;;;;;;;13.55;5.38;;;23.70;99.90;;;;;;4992562;28;20505;-85
2023/09/08 02:48:38;;;;;;;13.15;5.60;;;23.70;99.90;;;;;;4991389;28;20023;-85
2023/09/08 02:51:03;;;;;;;11.85;5.05;;;23.70;99.90;;;;;;4992452;28;20038;-85
2023/09/08 02:53:29;;;;;;;10.60;5.63;;;23.70;99.90;;;;;;4991087;28;20046;-88
2023/09/08 02:55:55;;;;;;;11.85;5.30;;;23.80;99.90;;;;;;4992415;28;20109;-86
2023/09/08 02:58:21;;;;;;;12.23;5.20;;;23.80;99.90;;;;;;4992265;28;20034;-87
2023/09/08 03:00:47;;;;;;;16.20;5.40;;;23.80;99.90;;;;;;4991285;28;20029;-87
2023/09/08 03:03:12;;;;;;;15.57;6.00;;;23.80;99.90;;;;;;4992353;28;20035;-88
2023/09/08 03:05:38;;;;;;;12.98;5.63;;;23.80;99.90;;;;;;4976007;28;20518;-86
2023/09/08 03:08:05;;;;;;;15.63;5.72;;;23.80;99.90;;;;;;4973606;28;20022;-87
2023/09/08 03:10:33;;;;;;;12.63;5.70;;;23.70;99.90;;;;;;4972749;28;20027;-87
2023/09/08 03:13:05;;;;;;;10.98;5.60;;;23.70;99.90;;;;;;4972646;28;20391;-87
2023/09/08 03:15:31;;;;;;;12.30;5.80;;;23.70;99.90;;;;;;4972682;28;20031;-87
2023/09/08 03:18:00;;;;;;;16.25;5.68;;;23.70;99.90;;;;;;4972630;28;20038;-88
2023/09/08 03:20:28;;;;;;;10.07;5.38;;;23.70;99.90;;;;;;4972567;28;20034;-85
2023/09/08 03:22:53;;;;;;;10.00;6.03;;;23.60;99.90;;;;;;4989042;28;20038;-87
2023/09/08 03:25:19;;;;;;;13.07;5.50;;;23.60;99.90;;;;;;4991776;28;20038;-87
2023/09/08 03:27:44;;;;;;;10.80;5.50;;;23.50;99.90;;;;;;4991791;28;20030;-86
2023/09/08 03:30:10;;;;;;;8.80;5.30;;;23.50;99.90;;;;;;4990579;28;20041;-85
2023/09/08 03:32:37;;;;;;;11.77;4.78;;;23.50;99.90;;;;;;4992523;28;20050;-87
2023/09/08 03:35:04;;;;;;;18.48;5.60;;;23.50;99.90;;;;;;4983535;28;20503;-86
2023/09/08 03:37:30;;;;;;;14.88;5.57;;;23.50;99.90;;;;;;4987882;28;20049;-86
2023/09/08 03:39:55;;;;;;;11.98;5.38;;;23.50;99.90;;;;;;4991628;28;20042;-85
2023/09/08 03:42:21;;;;;;;20.80;6.03;;;23.40;99.90;;;;;;4990216;28;20060;-88
2023/09/08 03:44:46;;;;;;;11.77;5.40;;;23.40;99.90;;;;;;4991512;28;20536;-86
2023/09/08 03:47:12;;;;;;;10.68;5.30;;;23.40;99.90;;;;;;4991459;28;20026;-87
2023/09/08 03:49:38;;;;;;;20.80;5.53;;;23.40;99.90;;;;;;4989757;28;20402;-84
2023/09/08 03:52:04;;;;;;;11.02;5.32;;;23.40;99.90;;;;;;4991393;28;20046;-85
2023/09/08 03:54:29;;;;;;;12.82;5.82;;;23.30;99.90;;;;;;4991499;28;20109;-88
2023/09/08 03:56:55;;;;;;;12.85;5.63;;;23.20;99.90;;;;;;4990295;28;20034;-87
2023/09/08 03:59:21;;;;;;;13.57;5.97;;;23.20;99.90;;;;;;4991363;28;20027;-86
2023/09/08 04:01:46;;;;;;;11.30;5.80;;;23.20;99.90;;;;;;4991240;28;20022;-85
2023/09/08 04:04:12;;;;;;;10.00;5.30;;;23.20;99.90;;;;;;4988445;28;20027;-87
2023/09/08 04:06:38;;;;;;;9.10;5.28;;;23.20;99.90;;;;;;4997944;28;20498;-87
2023/09/08 04:09:03;;;;;;;11.43;5.20;;;23.20;99.90;;;;;;4994718;28;20049;-85
2023/09/08 04:11:29;;;;;;;8.93;5.22;;;23.20;99.90;;;;;;4986684;28;20033;-85
2023/09/08 04:13:55;;;;;;;14.13;5.57;;;23.10;99.90;;;;;;4983884;28;20034;-87
2023/09/08 04:16:20;;;;;;;10.32;5.68;;;23.10;99.90;;;;;;4990568;28;20506;-86
2023/09/08 04:18:46;;;;;;;10.75;5.35;;;23.10;99.90;;;;;;4990420;28;20023;-86
2023/09/08 04:21:12;;;;;;;11.18;5.85;;;23.10;99.90;;;;;;4975088;28;20065;-85
2023/09/08 04:23:37;;;;;;;12.57;5.40;;;23.10;99.90;;;;;;4972302;28;20031;-88
2023/09/08 04:26:03;;;;;;;13.68;6.10;;;23.00;99.90;;;;;;4972804;28;20066;-85
2023/09/08 04:28:29;;;;;;;11.60;5.90;;;23.00;99.90;;;;;;4979170;28;20085;-85
2023/09/08 04:30:54;;;;;;;10.73;5.72;;;23.10;99.90;;;;;;4980838;28;20089;-85
2023/09/08 04:33:20;;;;;;;12.77;6.00;;;23.10;99.90;;;;;;4977779;28;20105;-86
2023/09/08 04:35:45;;;;;;;15.38;6.40;;;23.10;99.90;;;;;;4988685;28;20042;-85
2023/09/08 04:38:11;;;;;;;17.33;6.10;;;23.10;99.90;;;;;;4982919;28;20065;-86
2023/09/08 04:40:40;;;;;;;10.88;5.97;;;23.10;99.90;;;;;;4990368;28;20109;-87
2023/09/08 04:43:06;;;;;;;12.52;6.90;;;23.00;99.90;;;;;;4989943;28;20054;-87
2023/09/08 04:45:31;;;;;;;14.68;6.15;;;22.90;99.90;;;;;;4987260;28;20108;-87
2023/09/08 04:47:57;;;;;;;14.05;6.68;;;22.80;99.90;;;;;;4999300;28;20048;-86
2023/09/08 04:50:22;;;;;;;10.43;6.15;;;22.70;99.90;;;;;;4992364;28;20035;-88
2023/09/08 04:52:48;;;;;;;13.95;6.70;;;22.60;99.90;;;;;;4990178;28;20026;-86
2023/09/08 04:55:14;;;;;;;20.95;6.97;;;22.50;99.90;;;;;;4990272;28;20035;-87
2023/09/08 04:57:40;;;;;;;11.75;6.22;;;22.60;99.90;;;;;;4990956;28;20022;-84
2023/09/08 05:00:06;;;;;;;12.02;6.30;;;22.50;99.90;;;;;;4989161;28;20034;-85
2023/09/08 05:02:32;;;;;;;13.68;6.38;;;22.60;99.90;;;;;;4979653;28;20510;-85
2023/09/08 05:04:57;;;;;;;14.27;6.30;;;22.60;99.90;;;;;;4969243;28;20026;-88
2023/09/08 05:07:23;;;;;;;14.30;6.70;;;22.60;99.90;;;;;;4977639;28;20058;-89
2023/09/08 05:09:49;;;;;;;18.50;6.95;;;22.60;99.90;;;;;;4982369;28;20034;-87
2023/09/08 05:12:15;;;;;;;16.60;6.72;;;22.60;99.90;;;;;;4986079;28;20018;-88
2023/09/08 05:14:41;;;;;;;14.00;6.65;;;22.60;99.90;;;;;;4989785;28;20069;-88
2023/09/08 05:17:06;;;;;;;11.38;6.10;;;22.70;99.90;;;;;;5001222;28;20026;-88
2023/09/08 05:19:32;;;;;;;15.25;6.55;;;22.80;99.90;;;;;;4989126;28;20040;-88
2023/09/08 05:21:57;;;;;;;11.93;6.22;;;22.80;99.90;;;;;;4995603;28;20018;-87
2023/09/08 05:24:25;;;;;;;12.93;6.60;;;22.70;99.90;;;;;;4982858;28;20106;-88
2023/09/08 05:26:51;;;;;;;11.75;6.55;;;22.70;99.90;;;;;;4989658;28;20028;-88
2023/09/08 05:29:16;;;;;;;14.68;7.25;;;22.70;99.90;;;;;;4989613;28;20031;-87
2023/09/08 05:31:42;;;;;;;16.00;6.70;;;22.70;99.90;;;;;;4990621;28;20014;-88
2023/09/08 05:34:08;;;;;;;14.15;7.65;;;22.60;99.90;;;;;;4989514;28;20041;-87
2023/09/08 05:36:36;;;;;;;13.23;6.32;;;22.60;99.90;;;;;;4989855;28;20466;-87
2023/09/08 05:39:02;;;;;;;14.43;6.68;;;22.60;99.90;;;;;;4986678;28;20034;-87
2023/09/08 05:41:28;;;;;;;12.63;6.40;;;22.60;99.90;;;;;;4989658;28;20513;-87
2023/09/08 05:43:54;;;;;;;11.88;6.53;;;22.60;99.90;;;;;;4987596;28;20038;-88
2023/09/08 05:46:19;;;;;;;11.13;6.50;;;22.70;99.90;;;;;;4989764;28;20411;-94
2023/09/08 05:48:47;;;;;;;12.95;6.53;;;22.70;99.90;;;;;;4989998;28;20026;-90
2023/09/08 05:51:14;;;;;;;13.80;6.75;;;22.70;99.90;;;;;;4990248;28;20018;-87
2023/09/08 05:53:40;;;;;;;16.52;7.28;;;22.60;99.90;;;;;;4989564;28;20498;-88
2023/09/08 05:56:06;;;;;;;18.67;7.10;;;22.60;99.90;;;;;;4989476;28;20054;-87
2023/09/08 05:58:32;;;;;;;17.90;7.40;;;22.60;99.90;;;;;;4989531;28;20053;-87
2023/09/08 06:00:57;;;;;;;15.30;7.13;;;22.60;99.90;;;;;;4989414;28;20461;-87
2023/09/08 06:03:23;;;;;;;18.35;6.80;;;22.70;99.90;;;;;;4989602;28;20410;-86
2023/09/08 06:05:49;;;;;;;19.58;7.15;;;22.70;99.90;;;;;;4972806;28;20073;-87
2023/09/08 06:08:14;;;;;;;16.13;7.22;;;22.70;99.90;;;;;;4970260;28;20035;-87
2023/09/08 06:10:40;;;;;;;10.95;6.72;;;22.70;99.90;;;;;;4972465;28;20034;-87
2023/09/08 06:13:05;;;;;;;12.88;7.00;;;22.70;99.90;;;;;;4986928;28;20042;-87
2023/09/08 06:15:31;;;;;;;17.20;7.28;;;22.80;99.90;;;;;;4986557;28;20041;-88
2023/09/08 06:17:56;;;;;;;14.88;7.50;;;22.80;99.90;;;;;;4987883;28;20019;-86
2023/09/08 06:20:22;;;;;;;16.13;7.70;;;22.80;99.90;;;;;;4991474;28;20018;-90
2023/09/08 06:22:48;;;;;;;14.13;7.55;;;22.90;99.90;;;;;;4991861;28;20034;-87
2023/09/08 06:25:14;;;;;;;19.50;8.25;;;22.90;99.90;;;;;;4993330;28;20044;-90
2023/09/08 06:27:40;;;;;;;14.50;7.78;;;22.90;99.90;;;;;;4992964;28;20030;-87
2023/09/08 06:30:06;;;;;;;15.35;7.88;;;23.00;99.90;;;;;;4990559;28;20035;-87
2023/09/08 06:32:31;;;;;;;15.73;7.35;;;23.00;99.90;;;;;;4992933;28;20033;-87
2023/09/08 06:34:57;;;;;;;18.20;7.63;;;23.00;99.90;;;;;;4992414;28;20042;-87
2023/09/08 06:37:23;;;;;;;14.55;7.18;;;23.00;99.90;;;;;;4992389;28;20054;-87
2023/09/08 06:39:49;;;;;;;15.95;7.50;;;23.10;99.90;;;;;;4992934;28;20100;-87
2023/09/08 06:42:14;;;;;;;13.73;7.40;;;23.10;99.90;;;;;;4985132;28;20035;-87
2023/09/08 06:44:40;;;;;;;16.15;7.00;;;23.00;99.90;;;;;;4980782;28;20042;-87
2023/09/08 06:47:08;;;;;;;15.93;7.63;;;23.10;99.90;;;;;;4992335;28;20101;-87
2023/09/08 06:49:34;;;;;;;12.82;7.50;;;23.10;99.90;;;;;;4992246;28;20030;-88
2023/09/08 06:51:59;;;;;;;17.67;7.80;;;23.10;99.90;;;;;;4990860;28;20022;-87
2023/09/08 06:54:25;;;;;;;14.30;7.70;;;23.10;99.90;;;;;;4990970;28;20125;-88
2023/09/08 06:56:50;;;;;;;15.52;7.13;;;23.10;99.90;;;;;;4991872;28;20491;-88
2023/09/08 06:59:17;;;;;;;26.80;7.68;;;23.20;99.90;;;;;;4973515;28;20435;-88
2023/09/08 07:01:42;;;;;;;19.60;8.00;;;23.20;99.90;;;;;;4972900;28;20073;-87
2023/09/08 07:04:08;;;;;;;14.65;8.00;;;23.20;99.90;;;;;;4972904;28;20030;-88
2023/09/08 07:06:35;;;;;;;16.23;7.90;;;23.40;99.90;;;;;;4973146;28;20035;-89
2023/09/08 07:09:01;;;;;;;17.20;8.63;;;23.40;99.90;;;;;;4971458;28;20031;-89
2023/09/08 07:11:27;;;;;;;15.98;8.40;;;23.40;99.90;;;;;;4980336;28;20022;-83
2023/09/08 07:13:52;;;;;;;17.52;7.85;;;23.30;99.90;;;;;;4990624;28;20030;-83
2023/09/08 07:16:18;;;;;;;14.65;8.40;;;23.40;99.90;;;;;;4992788;28;20030;-83
2023/09/08 07:18:43;;;;;;;14.93;8.43;;;23.40;99.90;;;;;;4991874;28;20109;-83
2023/09/08 07:21:09;;;;;;;16.50;7.97;;;23.40;99.90;;;;;;4991795;28;20077;-83
2023/09/08 07:23:36;;;;;;;18.55;7.90;;;23.50;99.90;;;;;;4990408;28;20065;-83
2023/09/08 07:26:02;;;;;;;15.93;7.40;;;23.60;99.90;;;;;;4991305;28;20034;-83
2023/09/08 07:28:27;;;;;;;18.92;7.78;;;23.70;99.90;;;;;;4991431;28;20039;-83
2023/09/08 07:30:53;;;;;;;16.65;8.05;;;23.70;99.90;;;;;;4991640;28;20026;-82
2023/09/08 07:33:19;;;;;;;13.32;7.60;;;23.80;99.90;;;;;;4990531;28;20054;-83
2023/09/08 07:35:44;;;;;;;14.93;7.95;;;24.00;99.90;;;;;;4991422;28;20109;-83
2023/09/08 07:38:10;;;;;;;13.20;6.78;;;24.10;99.90;;;;;;4990566;28;20093;-83
2023/09/08 07:40:36;;;;;;;12.43;6.85;;;24.20;99.90;;;;;;4991301;28;20590;-84
2023/09/08 07:43:02;;;;;;;15.43;7.53;;;24.40;99.90;;;;;;4988335;28;20030;-83
2023/09/08 07:45:28;;;;;;;16.55;7.55;;;24.40;99.90;;;;;;5009881;28;20022;-83
2023/09/08 07:47:53;;;;;;;16.05;7.38;;;24.40;99.90;;;;;;5003894;28;20042;-83
2023/09/08 07:50:28;;;;;;;16.05;6.93;;;24.40;99.90;;;;;;5009510;28;20032;-83
2023/09/08 07:52:55;;;;;;;12.55;7.00;;;24.40;99.90;;;;;;5010002;28;20041;-83
2023/09/08 07:55:23;;;;;;;21.58;7.30;;;24.60;99.90;;;;;;5010889;28;20045;-83
2023/09/08 07:57:50;;;;;;;14.15;6.45;;;24.70;99.90;;;;;;4998508;28;20030;-83
2023/09/08 08:00:17;;;;;;;18.52;7.43;;;24.90;99.90;;;;;;4989552;28;20093;-83
2023/09/08 08:02:45;;;;;;;13.93;7.30;;;24.90;99.90;;;;;;4990539;28;20037;-83
2023/09/08 08:05:11;;;;;;;11.60;6.65;;;25.10;99.90;;;;;;4989417;28;20186;-83
2023/09/08 08:07:38;;;;;;;16.90;7.20;;;25.10;99.90;;;;;;4990435;28;20093;-83
2023/09/08 08:10:05;;;;;;;15.03;6.10;;;25.10;99.90;;;;;;4990239;28;20552;-83
2023/09/08 08:12:30;;;;;;;14.35;6.25;;;25.30;99.90;;;;;;4989881;28;20026;-83
2023/09/08 08:14:56;;;;;;;11.95;6.28;;;25.40;99.90;;;;;;4989788;28;20168;-83
2023/09/08 08:17:22;;;;;;;21.75;6.72;;;25.50;99.90;;;;;;4990709;28;20023;-82
2023/09/08 08:19:47;;;;;;;14.05;6.57;;;25.50;99.90;;;;;;4989068;28;20037;-84
2023/09/08 08:22:13;;;;;;;12.23;6.47;;;25.60;99.90;;;;;;4989977;28;20274;-82
2023/09/08 08:24:38;;;;;;;14.05;6.65;;;25.70;99.90;;;;;;4989597;28;20041;-82
2023/09/08 08:27:04;;;;;;;15.23;6.35;;;25.60;99.90;;;;;;4990037;28;20030;-83
2023/09/08 08:29:30;;;;;;;14.93;5.57;;;25.60;99.90;;;;;;4990125;28;20042;-83
2023/09/08 08:31:56;;;;;;;16.33;6.32;;;25.70;99.90;;;;;;4989996;28;20089;-83
2023/09/08 08:34:21;;;;;;;14.63;5.72;;;25.80;99.90;;;;;;4989356;28;20070;-83
2023/09/08 08:36:47;;;;;;;14.65;6.35;;;25.90;99.90;;;;;;4989730;28;20025;-83
2023/09/08 08:39:13;;;;;;;19.55;6.88;;;26.10;99.90;;;;;;4988053;28;20037;-82
2023/09/08 08:41:40;;;;;;;17.23;6.93;;;26.00;99.90;;;;;;4989359;28;20022;-82
2023/09/08 08:44:07;;;;;;;15.45;6.03;;;26.00;99.90;;;;;;4989611;28;20549;-82
2023/09/08 08:46:35;;;;;;;19.48;6.50;;;26.20;99.90;;;;;;4989710;28;20054;-82
2023/09/08 08:49:03;;;;;;;14.93;6.70;;;26.00;99.90;;;;;;4987531;28;20034;-82
2023/09/08 08:51:30;;;;;;;11.15;6.05;;;26.00;99.90;;;;;;4988962;28;20027;-82
2023/09/08 08:53:57;;;;;;;10.32;6.20;;;26.00;99.90;;;;;;4989302;28;20568;-81
2023/09/08 08:56:23;;;;;;;13.40;6.20;;;26.00;99.90;;;;;;4990272;28;20022;-81
2023/09/08 08:58:49;;;;;;;15.88;6.38;;;26.10;99.90;;;;;;4989497;28;20093;-82
2023/09/08 09:01:17;;;;;;;13.02;6.72;;;26.20;99.90;;;;;;4989292;28;20256;-83
2023/09/08 09:03:43;;;;;;;14.93;6.53;;;26.30;99.90;;;;;;4987559;28;20027;-83
2023/09/08 09:06:10;;;;;;;16.48;6.38;;;26.30;99.90;;;;;;4988604;28;20411;-84
2023/09/08 09:08:38;;;;;;;14.88;6.25;;;26.40;99.90;;;;;;4989053;28;20478;-83
2023/09/08 09:11:04;;;;;;;16.23;6.63;;;26.30;99.90;;;;;;4989132;28;20058;-84
2023/09/08 09:13:29;;;;;;;14.45;7.25;;;26.40;99.90;;;;;;4989424;28;20121;-83
2023/09/08 09:16:00;;;;;;;15.05;6.60;;;26.30;99.90;;;;;;4990092;28;20037;-83
2023/09/08 09:18:29;;;;;;;16.30;6.60;;;26.50;99.90;;;;;;4990015;28;20174;-84
2023/09/08 09:20:58;;;;;;;18.60;7.30;;;26.50;99.90;;;;;;4989061;28;20033;-82
2023/09/08 09:23:34;;;;;;;20.30;7.38;;;26.30;99.90;;;;;;4989771;28;20030;-83
2023/09/08 09:26:05;;;;;;;15.15;7.13;;;26.10;99.90;;;;;;4989071;28;20525;-82
2023/09/08 09:28:31;;;;;;;22.30;6.68;;;26.00;99.90;;;;;;4989217;28;20026;-84
2023/09/08 09:30:57;;;;;;;15.35;7.32;;;26.10;99.90;;;;;;4989018;28;20442;-83
2023/09/08 09:33:23;;;;;;;25.70;7.30;;;26.30;99.90;;;;;;4988229;28;20023;-83
2023/09/08 09:35:53;;;;;;;19.88;7.60;;;26.20;99.90;;;;;;4988976;28;20026;-82
2023/09/08 09:38:21;;;;;;;20.80;6.55;;;26.00;99.90;;;;;;4989123;28;20026;-82
2023/09/08 09:40:47;;;;;;;16.40;6.88;;;26.20;99.90;;;;;;5002163;28;20705;-83
2023/09/08 09:43:14;;;;;;;12.63;6.50;;;26.30;99.90;;;;;;5008453;28;20103;-83
2023/09/08 09:45:41;;;;;;;13.45;6.57;;;26.40;99.90;;;;;;5008418;28;20102;-83
2023/09/08 09:48:09;;;;;;;13.87;6.57;;;26.50;99.90;;;;;;4997730;28;20034;-83
2023/09/08 09:50:37;;;;;;;16.05;6.80;;;26.60;99.90;;;;;;4988658;28;20026;-83
2023/09/08 09:53:10;;;;;;;17.17;6.90;;;26.50;99.90;;;;;;4988905;28;20057;-82
2023/09/08 09:55:40;;;;;;;13.45;6.38;;;26.60;99.90;;;;;;4992088;28;20044;-81
2023/09/08 09:58:07;;;;;;;16.05;6.70;;;26.70;99.90;;;;;;5001051;28;20158;-83
2023/09/08 10:00:35;;;;;;;9.18;6.38;;;26.80;99.90;;;;;;5012513;28;20489;-83
2023/09/08 10:03:01;;;;;;;;;;;26.80;99.90;;;;;;5004370;28;20113;-82
2023/09/08 10:05:27;;;;;;;12.55;6.65;;;26.90;99.90;;;;;;4992464;28;20025;-84
2023/09/08 10:07:53;;;;;;;19.17;6.80;;;26.80;99.90;;;;;;4989615;28;20093;-82
2023/09/08 10:10:20;;;;;;;15.82;7.05;;;27.10;99.90;;;;;;4992725;28;20475;-83
2023/09/08 10:12:55;;;;;;;22.52;6.50;;;27.10;99.90;;;;;;4991784;28;20025;-83
2023/09/08 10:15:22;;;;;;;15.35;6.40;;;27.20;99.90;;;;;;4993146;28;20510;-83
2023/09/08 10:17:57;;;;;;;19.45;7.15;;;27.20;99.90;;;;;;4993072;28;20028;-83
2023/09/08 10:20:23;;;;;;;15.93;6.60;;;27.10;99.90;;;;;;4992216;28;20030;-83
2023/09/08 10:22:54;;;;;;;6.97;4.90;;;27.20;99.90;;;;;;4993118;28;20027;-84
2023/09/08 10:25:21;;;;;;;13.75;5.53;;;27.30;99.90;;;;;;4992669;28;20034;-83
2023/09/08 10:27:47;;;;;;;13.05;5.70;;;27.30;99.90;;;;;;4992667;28;20117;-82
2023/09/08 10:30:14;;;;;;;14.73;5.72;;;27.30;99.90;;;;;;4992589;28;20430;-83
2023/09/08 10:32:42;;;;;;;16.50;5.17;;;27.30;99.90;;;;;;4992510;28;20036;-82
2023/09/08 10:35:09;;;;;;;11.15;5.38;;;27.40;99.90;;;;;;4992539;28;20041;-84
2023/09/08 10:37:35;;;;;;;17.45;5.60;;;27.50;99.90;;;;;;4992563;28;20022;-82
2023/09/08 10:40:22;;;;;;;15.88;5.53;;;27.60;99.90;;;;;;4991415;28;20030;-82
2023/09/08 10:42:49;;;;;;;11.45;5.47;;;27.30;99.90;;;;;;4991209;28;20019;-82
2023/09/08 10:45:16;;;;;;;10.80;5.38;;;27.40;99.90;;;;;;4992517;28;20026;-82
2023/09/08 10:47:45;;;;;;;12.02;5.55;;;27.60;99.90;;;;;;4992523;28;20482;-83
2023/09/08 10:50:19;;;;;;;14.63;5.40;;;27.60;99.90;;;;;;4990484;28;20085;-83
2023/09/08 10:53:03;;;;;;;12.45;5.50;;;27.80;99.90;;;;;;4992337;28;20451;-83
2023/09/08 10:55:37;;;;;;;29.67;6.75;;;27.80;99.90;;;;;;4992976;28;20034;-82
2023/09/08 10:58:04;;;;;;;17.00;5.85;;;27.70;99.90;;;;;;4992421;28;20019;-82
2023/09/08 11:00:43;;;;;;;14.50;5.72;;;27.80;99.90;;;;;;4991458;28;20030;-83
2023/09/08 11:03:09;;;;;;;10.05;5.40;;;28.00;99.90;;;;;;4992285;28;20029;-84
2023/09/08 11:05:35;;;;;;;13.45;5.45;;;28.30;99.90;;;;;;4990603;28;20026;-87
2023/09/08 11:08:01;;;;;;;17.55;5.55;;;28.50;99.90;;;;;;4992316;28;20033;-85
2023/09/08 11:10:28;;;;;;;10.43;5.50;;;28.50;99.90;;;;;;4992102;28;20027;-85
2023/09/08 11:12:54;;;;;;;9.25;5.40;;;28.50;99.90;;;;;;4985328;28;20109;-85
2023/09/08 11:15:20;;;;;;;11.32;5.60;;;28.60;99.90;;;;;;4972687;28;20351;-85
2023/09/08 11:17:50;;;;;;;14.43;5.13;;;28.50;99.90;;;;;;4972579;28;20467;-83
2023/09/08 11:20:16;;;;;;;12.43;5.70;;;28.60;99.90;;;;;;4972755;28;20030;-84
2023/09/08 11:22:43;;;;;;;14.02;5.60;;;28.70;99.90;;;;;;4972624;28;20015;-82
2023/09/08 11:25:12;;;;;;;9.50;5.60;;;28.90;99.90;;;;;;4972045;28;20037;-82
2023/09/08 11:27:39;;;;;;;9.70;5.45;;;29.10;99.90;;;;;;4991940;28;20109;-83
2023/09/08 11:30:07;;;;;;;14.68;5.90;;;29.20;99.90;;;;;;4990672;28;20054;-84
2023/09/08 11:32:34;;;;;;;14.02;5.30;;;29.10;99.90;;;;;;4991589;28;20022;-83
2023/09/08 11:35:09;;;;;;;14.35;5.90;;;29.10;99.90;;;;;;4989569;28;20042;-84
2023/09/08 11:37:39;;;;;;;20.02;6.03;;;29.10;99.90;;;;;;4987191;28;20109;-84
2023/09/08 11:40:11;;;;;;;15.00;5.57;;;29.10;99.90;;;;;;4989910;28;20118;-83
2023/09/08 11:42:44;;;;;;;20.35;5.63;;;29.20;99.90;;;;;;4990220;28;20084;-83
2023/09/08 11:45:23;;;;;;;24.40;5.38;;;29.20;99.90;;;;;;4991431;28;20034;-84
2023/09/08 11:47:52;;;;;;;34.80;6.00;;;29.10;99.90;;;;;;4990256;28;20076;-84
2023/09/08 11:50:19;;;;;;;19.10;5.63;;;29.30;99.90;;;;;;4991080;28;20506;-83
2023/09/08 11:52:47;;;;;;;19.45;5.22;;;29.20;99.90;;;;;;4990918;28;20031;-84
2023/09/08 11:55:13;;;;;;;17.23;5.18;;;29.30;99.90;;;;;;4990646;28;20077;-83
2023/09/08 11:57:40;;;;;;;12.50;5.30;;;29.30;99.90;;;;;;4987025;28;20010;-84
2023/09/08 12:00:09;;;;;;;18.53;8.40;;;29.40;99.90;;;;;;4971235;28;20041;-84
2023/09/08 12:02:36;;;;;;;14.40;5.05;;;29.50;99.90;;;;;;4969812;28;20038;-84
2023/09/08 12:05:03;;;;;;;16.00;4.90;;;29.50;99.90;;;;;;4989536;28;20073;-84
2023/09/08 12:07:29;;;;;;;18.70;5.95;;;29.70;99.90;;;;;;4990428;28;20398;-84
2023/09/08 12:09:54;;;;;;;18.83;6.18;;;29.50;99.90;;;;;;4990493;28;20502;-83
2023/09/08 12:12:20;;;;;;;15.95;5.45;;;29.40;99.90;;;;;;4990169;28;20572;-83
2023/09/08 12:14:46;;;;;;;16.48;5.40;;;29.60;99.90;;;;;;4989054;28;20065;-83
2023/09/08 12:17:15;;;;;;;15.80;5.28;;;29.60;99.90;;;;;;4990005;28;20030;-83
2023/09/08 12:19:41;;;;;;;10.63;5.20;;;29.40;99.90;;;;;;4990564;28;20029;-83
2023/09/08 12:22:07;;;;;;;17.58;5.30;;;29.50;99.90;;;;;;4990384;28;20105;-83
2023/09/08 12:24:56;;;;;;;12.02;5.10;;;29.70;99.90;;;;;;4990737;28;20050;-83
2023/09/08 12:27:22;;;;;;;17.20;5.22;;;29.60;99.90;;;;;;4990605;28;20030;-83
2023/09/08 12:30:00;;;;;;;18.95;5.05;;;29.80;99.90;;;;;;4988206;28;20542;-83
2023/09/08 12:32:28;;;;;;;11.98;5.20;;;30.00;99.90;;;;;;4970849;28;20041;-83
2023/09/08 12:34:53;;;;;;;12.90;5.45;;;30.20;99.90;;;;;;4987019;28;20125;-83
2023/09/08 12:37:23;;;;;;;16.88;5.20;;;30.10;99.90;;;;;;4990435;28;20078;-83